AirNav   Jet Aviation Boston
 
 369 users online  

4Y9 Eagles Landing Airport
Harrietta, Michigan, USA

GOING TO HARRIETTA?


FAA INFORMATION EFFECTIVE 21 JUNE 2018

Location

FAA Identifier: 4Y9
Lat/Long: 44-18-30.0170N / 085-46-20.2410W
44-18.500283N / 085-46.337350W
44.3083381 / -85.7722892
(estimated)
Elevation: 1010 ft. / 307.8 m (surveyed)
Variation: 04W (1985)
From city: 3 miles W of HARRIETTA, MI
Time zone: UTC -4 (UTC -5 during Standard Time)
Zip code: 49638

Airport Operations

Airport use: Open to the public
Activation date: 02/1972
Control tower: no
ARTCC: MINNEAPOLIS CENTER
FSS: LANSING FLIGHT SERVICE STATION
NOTAMs facility: LAN (NOTAM-D service available)
Attendance: UNATND
Wind indicator: yes
Segmented circle: no

Airport Communications

CTAF: 122.9
WX AWOS-3 at CAD (15 nm E): 128.325 (231-779-9536)

Nearby radio navigation aids

VOR radial/distance  VOR name  Freq  Var
MBLr089/20.8MANISTEE VOR/DME111.4005W
TVCr206/23.6TRAVERSE CITY VOR/DME114.6002W

 
NDB name  Hdg/Dist  Freq  Var  ID
WEXOR298/10.633604WMA -- .-

Airport Services

Airframe service: NONE
Powerplant service: NONE
Bottled oxygen: NONE
Bulk oxygen: NONE

Runway Information

Runway 8/26

Dimensions: 2400 x 100 ft. / 732 x 30 m
Surface: turf, in poor condition
RY SFC ROUGH & UNEVEN.
Runway edge markings: 08/26 MKD WITH 3 FT YELLOW CONES.
RUNWAY 8  RUNWAY 26
Latitude: 44-18.459167N44-18.594000N
Longitude: 085-47.269667W085-46.115833W
Elevation: 1010.0 ft.1010.0 ft.
Traffic pattern: leftleft
Runway end identifier lights: nono
Obstructions: 60 ft. trees, 60 ft. left and right of centerline
APCH RATIO 20:1 OVR +60 FT TREES, 1200 FT DSTC, BASED ON STRAIGHT OUT.
60 ft. trees, 95 ft. left and right of centerline
APCH RATIO 22:1 OVR +106 FT TREE, 2400 FT DSTC, BASED ON STRAIGHT OUT.

Airport Ownership and Management from official FAA records

Ownership: Privately-owned
Owner: KEN WARD
4196 E STATE RD
PORT CLINTON, OH 43452-2631
Phone (419) 341-1503
Manager: MIKE WOODLEY
3853 APOLLO DR
MIDLAND, MI 48642-6354
Phone (586) 944-7101

Airport Operational Statistics

Aircraft based on the field: 2
Single engine airplanes: 2
    
Aircraft operations: 100/year *
50% transient general aviation
50% local general aviation
* for 12-month period ending 31 December 2016

Additional Remarks

60 FT TREES BOTH SIDES OF RY 100 FT FM RY CNTRLN.
LARGE DEPRESSION E OF RY 26.
ARPT CLSD WHEN SNOW COVERED.

Instrument Procedures

There are no published instrument procedures at 4Y9.

Some nearby airports with instrument procedures:

KCAD - Wexford County Airport (15 nm E)
KMBL - Manistee County-Blacker Airport (20 nm W)
7D3 - Baldwin Municipal Airport (26 nm S)
KFKS - Frankfort Dow Memorial Field (26 nm NW)
KTVC - Cherry Capital Airport (27 nm N)
 
Loc | Ops | Rwys | IFR | FBO | Links
Com | Nav | Svcs | Stats | Notes

AirNav Hotels Sweepstakes
 
Area around 4Y9 (Eagles Landing Airport)
 
Road maps at: MapQuest Bing Google
 
Aerial photo
WARNING: Photo may not be current or correct
Aerial photo of 4Y9 (Eagles Landing Airport)
Photo by Martin Siegwart
Photo taken 02-Oct-2014
looking east.

Do you have a better or more recent aerial photo of Eagles Landing Airport that you would like to share? If so, please send us your photo.

 
Sectional chart

 
Airport distance calculator
Flying to Eagles Landing Airport? Find the distance to fly.

From to 4Y9

Sunrise and sunset
Times for 23-Jun-2018
 Local
(UTC-4)
 Zulu
(UTC)
Morning civil twilight05:2409:24
Sunrise06:0110:01
Sunset21:3001:30
Evening civil twilight22:0702:07

Current date and time
Zulu (UTC)  23-Jun-2018 08:44:49
Local (UTC-4)  23-Jun-2018 04:44:49
 
METAR
KCAD 
15nm E 
230835Z AUTO 00000KT 10SM BKN010 14/11 A2974 RMK AO2 T01420112
KMBL 
21nm W 
230756Z AUTO 08006KT 10SM CLR 14/09 A2973 RMK AO2 SLP082 T01440089
KFKS 
26nm NW 
230835Z AUTO 07006KT 10SM CLR 16/09 A2973 RMK AO2 T01640085
KTVC 
27nm N 
230753Z AUTO 00000KT 10SM CLR 14/10 A2975 RMK AO2 SLP071 T01390100
TAF
KMBL 
21nm W 
230520Z 2306/2406 VRB03KT P6SM SCT120 FM231800 03007KT P6SM VCSH BKN140 FM232000 01006KT P6SM VCSH OVC040 FM240000 35005KT P6SM BKN015 FM240200 VRB03KT P6SM OVC008
NOTAMs
Click for the latest NOTAMs
NOTAMs are issued by the DoD/FAA and will open in a separate window not controlled by AirNav.

 

 
 

Would you like to see your business listed on this page?

 If your business provides an interesting product or service to pilots, flight crews, aircraft, or users of the Eagles Landing Airport, you should consider listing it here.  To start the listing process, click on the button below
 
Add a business
 

Other Pages about Eagles Landing Airport

Page from the Michigan Airport Directory (PDF)
 
Update a link
 
Copyright © AirNav, LLC. All rights reserved. Privacy Policy  Contact